sensor_id;sensor_type;location;lat;lon;timestamp;temperature;humidity
68248;SHT30;55064;49.636;12.164;2023-11-19T00:01:35;3.10;99.96
68248;SHT30;55064;49.636;12.164;2023-11-19T00:04:00;3.14;99.74
68248;SHT30;55064;49.636;12.164;2023-11-19T00:06:25;3.17;99.80
68248;SHT30;55064;49.636;12.164;2023-11-19T00:08:51;3.14;99.72
68248;SHT30;55064;49.636;12.164;2023-11-19T00:11:17;3.19;99.77
68248;SHT30;55064;49.636;12.164;2023-11-19T00:13:42;3.19;99.99
68248;SHT30;55064;49.636;12.164;2023-11-19T00:16:08;3.22;99.75
68248;SHT30;55064;49.636;12.164;2023-11-19T00:18:35;3.25;99.87
68248;SHT30;55064;49.636;12.164;2023-11-19T00:21:01;3.27;99.99
68248;SHT30;55064;49.636;12.164;2023-11-19T00:23:27;3.28;99.99
68248;SHT30;55064;49.636;12.164;2023-11-19T00:25:52;3.31;99.96
68248;SHT30;55064;49.636;12.164;2023-11-19T00:28:18;3.31;99.99
68248;SHT30;55064;49.636;12.164;2023-11-19T00:30:43;3.38;99.81
68248;SHT30;55064;49.636;12.164;2023-11-19T00:33:08;3.38;99.81
68248;SHT30;55064;49.636;12.164;2023-11-19T00:35:34;3.35;99.96
68248;SHT30;55064;49.636;12.164;2023-11-19T00:37:59;3.38;99.95
68248;SHT30;55064;49.636;12.164;2023-11-19T00:40:25;3.42;99.86
68248;SHT30;55064;49.636;12.164;2023-11-19T00:42:51;3.48;99.79
68248;SHT30;55064;49.636;12.164;2023-11-19T00:45:16;3.51;99.76
68248;SHT30;55064;49.636;12.164;2023-11-19T00:47:41;3.52;99.71
68248;SHT30;55064;49.636;12.164;2023-11-19T00:50:07;3.51;99.84
68248;SHT30;55064;49.636;12.164;2023-11-19T00:52:36;3.55;99.72
68248;SHT30;55064;49.636;12.164;2023-11-19T00:55:02;3.56;99.81
68248;SHT30;55064;49.636;12.164;2023-11-19T00:57:28;3.54;99.72
68248;SHT30;55064;49.636;12.164;2023-11-19T00:59:53;3.55;99.90
68248;SHT30;55064;49.636;12.164;2023-11-19T01:02:18;3.55;99.99
68248;SHT30;55064;49.636;12.164;2023-11-19T01:04:44;3.60;99.99
68248;SHT30;55064;49.636;12.164;2023-11-19T01:07:10;3.58;99.99
68248;SHT30;55064;49.636;12.164;2023-11-19T01:09:38;3.56;99.99
68248;SHT30;55064;49.636;12.164;2023-11-19T01:12:04;3.59;99.99
68248;SHT30;55064;49.636;12.164;2023-11-19T01:14:30;3.59;99.99
68248;SHT30;55064;49.636;12.164;2023-11-19T01:16:55;3.62;99.99
68248;SHT30;55064;49.636;12.164;2023-11-19T01:19:21;3.60;99.99
68248;SHT30;55064;49.636;12.164;2023-11-19T01:21:48;3.67;99.97
68248;SHT30;55064;49.636;12.164;2023-11-19T01:24:13;3.66;99.83
68248;SHT30;55064;49.636;12.164;2023-11-19T01:26:39;3.69;99.95
68248;SHT30;55064;49.636;12.164;2023-11-19T01:29:09;3.70;99.99
68248;SHT30;55064;49.636;12.164;2023-11-19T01:31:34;3.72;99.99
68248;SHT30;55064;49.636;12.164;2023-11-19T01:33:59;3.73;99.69
68248;SHT30;55064;49.636;12.164;2023-11-19T01:36:25;3.69;99.96
68248;SHT30;55064;49.636;12.164;2023-11-19T01:38:50;3.69;99.99
68248;SHT30;55064;49.636;12.164;2023-11-19T01:41:15;3.82;99.63
68248;SHT30;55064;49.636;12.164;2023-11-19T01:43:41;3.80;99.75
68248;SHT30;55064;49.636;12.164;2023-11-19T01:46:07;3.76;99.64
68248;SHT30;55064;49.636;12.164;2023-11-19T01:48:35;3.76;99.88
68248;SHT30;55064;49.636;12.164;2023-11-19T01:51:02;3.76;99.44
68248;SHT30;55064;49.636;12.164;2023-11-19T01:53:29;3.72;99.99
68248;SHT30;55064;49.636;12.164;2023-11-19T01:55:56;3.70;99.99
68248;SHT30;55064;49.636;12.164;2023-11-19T01:58:22;3.80;99.99
68248;SHT30;55064;49.636;12.164;2023-11-19T02:00:48;3.77;99.82
68248;SHT30;55064;49.636;12.164;2023-11-19T02:03:14;3.80;99.95
68248;SHT30;55064;49.636;12.164;2023-11-19T02:05:39;3.76;99.99
68248;SHT30;55064;49.636;12.164;2023-11-19T02:08:05;3.77;99.99
68248;SHT30;55064;49.636;12.164;2023-11-19T02:10:30;3.80;99.99
68248;SHT30;55064;49.636;12.164;2023-11-19T02:12:57;3.76;99.99
68248;SHT30;55064;49.636;12.164;2023-11-19T02:15:23;3.84;99.99
68248;SHT30;55064;49.636;12.164;2023-11-19T02:17:49;3.83;99.99
68248;SHT30;55064;49.636;12.164;2023-11-19T02:20:15;3.86;99.99
68248;SHT30;55064;49.636;12.164;2023-11-19T02:22:41;3.83;99.99
68248;SHT30;55064;49.636;12.164;2023-11-19T02:25:32;3.83;99.99
68248;SHT30;55064;49.636;12.164;2023-11-19T02:28:01;3.91;99.93
68248;SHT30;55064;49.636;12.164;2023-11-19T02:30:26;3.89;99.99
68248;SHT30;55064;49.636;12.164;2023-11-19T02:32:56;3.90;99.99
68248;SHT30;55064;49.636;12.164;2023-11-19T02:35:27;3.97;99.99
68248;SHT30;55064;49.636;12.164;2023-11-19T02:37:56;3.94;99.85
68248;SHT30;55064;49.636;12.164;2023-11-19T02:40:21;3.90;99.98
68248;SHT30;55064;49.636;12.164;2023-11-19T02:42:48;3.91;99.99
68248;SHT30;55064;49.636;12.164;2023-11-19T02:45:14;3.91;99.99
68248;SHT30;55064;49.636;12.164;2023-11-19T02:47:43;3.90;99.99
68248;SHT30;55064;49.636;12.164;2023-11-19T02:50:12;3.91;99.99
68248;SHT30;55064;49.636;12.164;2023-11-19T02:52:44;3.93;99.99
68248;SHT30;55064;49.636;12.164;2023-11-19T02:55:11;3.94;99.99
68248;SHT30;55064;49.636;12.164;2023-11-19T02:57:41;3.91;99.99
68248;SHT30;55064;49.636;12.164;2023-11-19T03:00:20;3.93;99.99
68248;SHT30;55064;49.636;12.164;2023-11-19T03:02:49;3.95;99.99
68248;SHT30;55064;49.636;12.164;2023-11-19T03:05:24;3.94;99.99
68248;SHT30;55064;49.636;12.164;2023-11-19T03:07:49;3.94;99.99
68248;SHT30;55064;49.636;12.164;2023-11-19T03:10:15;3.97;99.99
68248;SHT30;55064;49.636;12.164;2023-11-19T03:12:41;4.04;99.99
68248;SHT30;55064;49.636;12.164;2023-11-19T03:15:07;4.10;99.99
68248;SHT30;55064;49.636;12.164;2023-11-19T03:17:43;4.03;99.99
68248;SHT30;55064;49.636;12.164;2023-11-19T03:20:10;3.98;99.99
68248;SHT30;55064;49.636;12.164;2023-11-19T03:22:39;4.00;99.99
68248;SHT30;55064;49.636;12.164;2023-11-19T03:25:04;4.01;99.99
68248;SHT30;55064;49.636;12.164;2023-11-19T03:27:29;4.01;99.99
68248;SHT30;55064;49.636;12.164;2023-11-19T03:29:55;4.01;99.99
68248;SHT30;55064;49.636;12.164;2023-11-19T03:32:20;4.03;99.99
68248;SHT30;55064;49.636;12.164;2023-11-19T03:34:45;4.04;99.99
68248;SHT30;55064;49.636;12.164;2023-11-19T03:37:11;4.01;99.99
68248;SHT30;55064;49.636;12.164;2023-11-19T03:39:37;4.05;99.99
68248;SHT30;55064;49.636;12.164;2023-11-19T03:42:02;4.08;99.99
68248;SHT30;55064;49.636;12.164;2023-11-19T03:44:28;4.04;99.99
68248;SHT30;55064;49.636;12.164;2023-11-19T03:46:54;4.01;99.99
68248;SHT30;55064;49.636;12.164;2023-11-19T03:49:19;4.10;99.99
68248;SHT30;55064;49.636;12.164;2023-11-19T03:51:44;4.04;99.99
68248;SHT30;55064;49.636;12.164;2023-11-19T03:54:10;4.05;99.99
68248;SHT30;55064;49.636;12.164;2023-11-19T03:56:36;4.04;99.99
68248;SHT30;55064;49.636;12.164;2023-11-19T03:59:02;4.04;99.99
68248;SHT30;55064;49.636;12.164;2023-11-19T04:01:28;4.08;99.99
68248;SHT30;55064;49.636;12.164;2023-11-19T04:03:53;4.10;99.99
68248;SHT30;55064;49.636;12.164;2023-11-19T04:06:18;4.14;99.99
68248;SHT30;55064;49.636;12.164;2023-11-19T04:08:44;4.22;99.99
68248;SHT30;55064;49.636;12.164;2023-11-19T04:11:10;4.24;99.99
68248;SHT30;55064;49.636;12.164;2023-11-19T04:13:35;4.25;99.99
68248;SHT30;55064;49.636;12.164;2023-11-19T04:16:00;4.28;99.99
68248;SHT30;55064;49.636;12.164;2023-11-19T04:18:26;4.24;99.99
68248;SHT30;55064;49.636;12.164;2023-11-19T04:20:52;4.21;99.99
68248;SHT30;55064;49.636;12.164;2023-11-19T04:23:17;4.25;99.99
68248;SHT30;55064;49.636;12.164;2023-11-19T04:25:43;4.25;99.99
68248;SHT30;55064;49.636;12.164;2023-11-19T04:28:08;4.24;99.99
68248;SHT30;55064;49.636;12.164;2023-11-19T04:30:33;4.27;99.99
68248;SHT30;55064;49.636;12.164;2023-11-19T04:33:00;4.29;99.99
68248;SHT30;55064;49.636;12.164;2023-11-19T04:35:25;4.31;99.99
68248;SHT30;55064;49.636;12.164;2023-11-19T04:37:51;4.29;99.99
68248;SHT30;55064;49.636;12.164;2023-11-19T04:40:16;4.27;99.99
68248;SHT30;55064;49.636;12.164;2023-11-19T04:42:43;4.25;99.99
68248;SHT30;55064;49.636;12.164;2023-11-19T04:45:09;4.27;99.99
68248;SHT30;55064;49.636;12.164;2023-11-19T04:47:36;4.27;99.99
68248;SHT30;55064;49.636;12.164;2023-11-19T04:50:02;4.29;99.99
68248;SHT30;55064;49.636;12.164;2023-11-19T04:52:27;4.31;99.99
68248;SHT30;55064;49.636;12.164;2023-11-19T04:54:52;4.31;99.99
68248;SHT30;55064;49.636;12.164;2023-11-19T04:57:18;4.31;99.99
68248;SHT30;55064;49.636;12.164;2023-11-19T04:59:43;4.29;99.99
68248;SHT30;55064;49.636;12.164;2023-11-19T05:02:09;4.34;99.99
68248;SHT30;55064;49.636;12.164;2023-11-19T05:04:34;4.35;99.99
68248;SHT30;55064;49.636;12.164;2023-11-19T05:07:00;4.38;99.99
68248;SHT30;55064;49.636;12.164;2023-11-19T05:09:25;4.32;99.99
68248;SHT30;55064;49.636;12.164;2023-11-19T05:11:51;4.35;99.99
68248;SHT30;55064;49.636;12.164;2023-11-19T05:14:16;4.32;99.99
68248;SHT30;55064;49.636;12.164;2023-11-19T05:16:43;4.32;99.99
68248;SHT30;55064;49.636;12.164;2023-11-19T05:19:09;4.31;99.99
68248;SHT30;55064;49.636;12.164;2023-11-19T05:21:34;4.25;99.99
68248;SHT30;55064;49.636;12.164;2023-11-19T05:24:01;4.29;99.99
68248;SHT30;55064;49.636;12.164;2023-11-19T05:26:26;4.24;99.99
68248;SHT30;55064;49.636;12.164;2023-11-19T05:28:52;4.25;99.99
68248;SHT30;55064;49.636;12.164;2023-11-19T05:31:18;4.29;99.99
68248;SHT30;55064;49.636;12.164;2023-11-19T05:33:43;4.28;99.99
68248;SHT30;55064;49.636;12.164;2023-11-19T05:36:10;4.29;99.99
68248;SHT30;55064;49.636;12.164;2023-11-19T05:38:36;4.31;99.99
68248;SHT30;55064;49.636;12.164;2023-11-19T05:41:02;4.32;99.99
68248;SHT30;55064;49.636;12.164;2023-11-19T05:43:27;4.39;99.99
68248;SHT30;55064;49.636;12.164;2023-11-19T05:45:53;4.41;99.99
68248;SHT30;55064;49.636;12.164;2023-11-19T05:48:18;4.48;99.99
68248;SHT30;55064;49.636;12.164;2023-11-19T05:50:43;4.49;99.99
68248;SHT30;55064;49.636;12.164;2023-11-19T05:53:09;4.50;99.99
68248;SHT30;55064;49.636;12.164;2023-11-19T05:55:36;4.55;99.99
68248;SHT30;55064;49.636;12.164;2023-11-19T05:58:10;4.60;99.99
68248;SHT30;55064;49.636;12.164;2023-11-19T06:00:37;4.66;99.99
68248;SHT30;55064;49.636;12.164;2023-11-19T06:03:02;4.65;99.99
68248;SHT30;55064;49.636;12.164;2023-11-19T06:05:28;4.70;99.99
68248;SHT30;55064;49.636;12.164;2023-11-19T06:07:53;4.73;99.99
68248;SHT30;55064;49.636;12.164;2023-11-19T06:10:18;4.75;99.99
68248;SHT30;55064;49.636;12.164;2023-11-19T06:12:45;4.75;99.99
68248;SHT30;55064;49.636;12.164;2023-11-19T06:15:11;4.76;99.99
68248;SHT30;55064;49.636;12.164;2023-11-19T06:17:36;4.79;99.99
68248;SHT30;55064;49.636;12.164;2023-11-19T06:20:04;4.81;99.99
68248;SHT30;55064;49.636;12.164;2023-11-19T06:22:30;4.81;99.99
68248;SHT30;55064;49.636;12.164;2023-11-19T06:24:56;4.81;99.99
68248;SHT30;55064;49.636;12.164;2023-11-19T06:27:21;4.86;99.99
68248;SHT30;55064;49.636;12.164;2023-11-19T06:29:47;4.88;99.99
68248;SHT30;55064;49.636;12.164;2023-11-19T06:32:12;4.88;99.99
68248;SHT30;55064;49.636;12.164;2023-11-19T06:34:38;4.88;99.99
68248;SHT30;55064;49.636;12.164;2023-11-19T06:37:03;4.86;99.99
68248;SHT30;55064;49.636;12.164;2023-11-19T06:39:29;4.90;99.99
68248;SHT30;55064;49.636;12.164;2023-11-19T06:41:55;4.91;99.99
68248;SHT30;55064;49.636;12.164;2023-11-19T06:44:20;4.86;99.99
68248;SHT30;55064;49.636;12.164;2023-11-19T06:46:45;4.83;99.99
68248;SHT30;55064;49.636;12.164;2023-11-19T06:49:11;4.87;99.99
68248;SHT30;55064;49.636;12.164;2023-11-19T06:51:41;4.84;99.99
68248;SHT30;55064;49.636;12.164;2023-11-19T06:54:07;4.86;99.99
68248;SHT30;55064;49.636;12.164;2023-11-19T06:56:32;4.81;99.99
68248;SHT30;55064;49.636;12.164;2023-11-19T06:58:58;4.83;99.99
68248;SHT30;55064;49.636;12.164;2023-11-19T07:01:23;4.86;99.99
68248;SHT30;55064;49.636;12.164;2023-11-19T07:03:48;4.84;99.99
68248;SHT30;55064;49.636;12.164;2023-11-19T07:06:14;4.87;99.99
68248;SHT30;55064;49.636;12.164;2023-11-19T07:08:42;4.83;99.99
68248;SHT30;55064;49.636;12.164;2023-11-19T07:11:11;4.81;99.99
68248;SHT30;55064;49.636;12.164;2023-11-19T07:13:37;4.87;99.99
68248;SHT30;55064;49.636;12.164;2023-11-19T07:16:03;4.87;99.99
68248;SHT30;55064;49.636;12.164;2023-11-19T07:18:28;4.90;99.99
68248;SHT30;55064;49.636;12.164;2023-11-19T07:20:54;4.94;99.99
68248;SHT30;55064;49.636;12.164;2023-11-19T07:23:19;4.95;99.99
68248;SHT30;55064;49.636;12.164;2023-11-19T07:25:45;4.97;99.99
68248;SHT30;55064;49.636;12.164;2023-11-19T07:28:12;4.97;99.99
68248;SHT30;55064;49.636;12.164;2023-11-19T07:30:38;4.93;99.99
68248;SHT30;55064;49.636;12.164;2023-11-19T07:33:03;4.98;99.99
68248;SHT30;55064;49.636;12.164;2023-11-19T07:35:29;5.01;99.99
68248;SHT30;55064;49.636;12.164;2023-11-19T07:37:56;5.07;99.99
68248;SHT30;55064;49.636;12.164;2023-11-19T07:40:21;5.05;99.99
68248;SHT30;55064;49.636;12.164;2023-11-19T07:42:47;5.10;99.99
68248;SHT30;55064;49.636;12.164;2023-11-19T07:45:12;5.13;99.99
68248;SHT30;55064;49.636;12.164;2023-11-19T07:47:37;5.14;99.99
68248;SHT30;55064;49.636;12.164;2023-11-19T07:50:04;5.15;99.99
68248;SHT30;55064;49.636;12.164;2023-11-19T07:52:29;5.21;99.99
68248;SHT30;55064;49.636;12.164;2023-11-19T07:54:55;5.18;99.99
68248;SHT30;55064;49.636;12.164;2023-11-19T07:57:20;5.22;99.99
68248;SHT30;55064;49.636;12.164;2023-11-19T07:59:46;5.31;99.99
68248;SHT30;55064;49.636;12.164;2023-11-19T08:02:11;5.34;99.99
68248;SHT30;55064;49.636;12.164;2023-11-19T08:04:37;5.32;99.99
68248;SHT30;55064;49.636;12.164;2023-11-19T08:07:05;5.32;99.99
68248;SHT30;55064;49.636;12.164;2023-11-19T08:09:30;5.39;99.99
68248;SHT30;55064;49.636;12.164;2023-11-19T08:11:56;5.39;99.99
68248;SHT30;55064;49.636;12.164;2023-11-19T08:14:21;5.41;99.99
68248;SHT30;55064;49.636;12.164;2023-11-19T08:16:46;5.46;99.99
68248;SHT30;55064;49.636;12.164;2023-11-19T08:19:12;5.49;99.99
68248;SHT30;55064;49.636;12.164;2023-11-19T08:21:37;5.43;99.99
68248;SHT30;55064;49.636;12.164;2023-11-19T08:24:03;5.43;99.99
68248;SHT30;55064;49.636;12.164;2023-11-19T08:26:29;5.43;99.99
68248;SHT30;55064;49.636;12.164;2023-11-19T08:28:54;5.45;99.99
68248;SHT30;55064;49.636;12.164;2023-11-19T08:31:19;5.42;99.99
68248;SHT30;55064;49.636;12.164;2023-11-19T08:33:45;5.42;99.99
68248;SHT30;55064;49.636;12.164;2023-11-19T08:36:16;5.45;99.99
68248;SHT30;55064;49.636;12.164;2023-11-19T08:38:42;5.55;99.99
68248;SHT30;55064;49.636;12.164;2023-11-19T08:41:07;5.59;99.99
68248;SHT30;55064;49.636;12.164;2023-11-19T08:43:33;5.55;99.99
68248;SHT30;55064;49.636;12.164;2023-11-19T08:45:58;5.58;99.99
68248;SHT30;55064;49.636;12.164;2023-11-19T08:48:23;5.69;99.99
68248;SHT30;55064;49.636;12.164;2023-11-19T08:50:49;5.69;99.99
68248;SHT30;55064;49.636;12.164;2023-11-19T08:53:15;5.70;99.99
68248;SHT30;55064;49.636;12.164;2023-11-19T08:55:40;5.81;99.99
68248;SHT30;55064;49.636;12.164;2023-11-19T08:58:05;5.81;99.99
68248;SHT30;55064;49.636;12.164;2023-11-19T09:00:32;5.85;99.99
68248;SHT30;55064;49.636;12.164;2023-11-19T09:02:57;5.90;99.99
68248;SHT30;55064;49.636;12.164;2023-11-19T09:05:23;5.93;99.99
68248;SHT30;55064;49.636;12.164;2023-11-19T09:07:48;6.13;99.99
68248;SHT30;55064;49.636;12.164;2023-11-19T09:10:15;6.18;99.99
68248;SHT30;55064;49.636;12.164;2023-11-19T09:12:41;6.21;99.99
68248;SHT30;55064;49.636;12.164;2023-11-19T09:15:06;6.21;99.99
68248;SHT30;55064;49.636;12.164;2023-11-19T09:17:32;6.26;99.99
68248;SHT30;55064;49.636;12.164;2023-11-19T09:19:57;6.26;99.99
68248;SHT30;55064;49.636;12.164;2023-11-19T09:22:23;6.32;99.99
68248;SHT30;55064;49.636;12.164;2023-11-19T09:24:48;6.39;99.99
68248;SHT30;55064;49.636;12.164;2023-11-19T09:27:14;6.50;99.99
68248;SHT30;55064;49.636;12.164;2023-11-19T09:29:39;6.53;99.99
68248;SHT30;55064;49.636;12.164;2023-11-19T09:32:05;6.52;99.99
68248;SHT30;55064;49.636;12.164;2023-11-19T09:34:31;6.53;99.99
68248;SHT30;55064;49.636;12.164;2023-11-19T09:36:57;6.53;99.99
68248;SHT30;55064;49.636;12.164;2023-11-19T09:39:22;6.57;99.99
68248;SHT30;55064;49.636;12.164;2023-11-19T09:41:47;6.56;99.99
68248;SHT30;55064;49.636;12.164;2023-11-19T09:44:13;6.61;99.99
68248;SHT30;55064;49.636;12.164;2023-11-19T09:46:41;6.62;99.99
68248;SHT30;55064;49.636;12.164;2023-11-19T09:49:08;6.61;99.99
68248;SHT30;55064;49.636;12.164;2023-11-19T09:51:35;6.68;99.99
68248;SHT30;55064;49.636;12.164;2023-11-19T09:54:01;6.63;99.99
68248;SHT30;55064;49.636;12.164;2023-11-19T09:56:31;6.68;99.99
68248;SHT30;55064;49.636;12.164;2023-11-19T09:58:59;6.63;99.99
68248;SHT30;55064;49.636;12.164;2023-11-19T10:01:25;6.62;99.99
68248;SHT30;55064;49.636;12.164;2023-11-19T10:03:51;6.59;99.99
68248;SHT30;55064;49.636;12.164;2023-11-19T10:06:19;6.63;99.99
68248;SHT30;55064;49.636;12.164;2023-11-19T10:08:45;6.63;99.99
68248;SHT30;55064;49.636;12.164;2023-11-19T10:11:11;6.65;99.99
68248;SHT30;55064;49.636;12.164;2023-11-19T10:13:38;6.59;99.99
68248;SHT30;55064;49.636;12.164;2023-11-19T10:16:07;6.65;99.99
68248;SHT30;55064;49.636;12.164;2023-11-19T10:18:33;6.69;99.99
68248;SHT30;55064;49.636;12.164;2023-11-19T10:21:03;6.79;99.99
68248;SHT30;55064;49.636;12.164;2023-11-19T10:23:29;6.79;99.99
68248;SHT30;55064;49.636;12.164;2023-11-19T10:26:02;6.80;99.99
68248;SHT30;55064;49.636;12.164;2023-11-19T10:28:38;6.80;99.99
68248;SHT30;55064;49.636;12.164;2023-11-19T10:31:05;6.83;99.99
68248;SHT30;55064;49.636;12.164;2023-11-19T10:33:30;6.86;99.99
68248;SHT30;55064;49.636;12.164;2023-11-19T10:35:57;6.99;99.99
68248;SHT30;55064;49.636;12.164;2023-11-19T10:38:23;7.05;99.99
68248;SHT30;55064;49.636;12.164;2023-11-19T10:40:50;7.07;99.99
68248;SHT30;55064;49.636;12.164;2023-11-19T10:43:16;7.18;99.99
68248;SHT30;55064;49.636;12.164;2023-11-19T10:45:42;7.29;99.99
68248;SHT30;55064;49.636;12.164;2023-11-19T10:48:07;7.42;99.99
68248;SHT30;55064;49.636;12.164;2023-11-19T10:50:37;7.52;99.99
68248;SHT30;55064;49.636;12.164;2023-11-19T10:53:04;7.77;99.99
68248;SHT30;55064;49.636;12.164;2023-11-19T10:55:31;7.87;99.99
68248;SHT30;55064;49.636;12.164;2023-11-19T10:58:03;7.98;99.99
68248;SHT30;55064;49.636;12.164;2023-11-19T11:00:44;8.00;99.99
68248;SHT30;55064;49.636;12.164;2023-11-19T11:03:21;8.10;99.99
68248;SHT30;55064;49.636;12.164;2023-11-19T11:05:51;8.18;99.99
68248;SHT30;55064;49.636;12.164;2023-11-19T11:08:17;8.24;99.99
68248;SHT30;55064;49.636;12.164;2023-11-19T11:10:45;8.32;99.99
68248;SHT30;55064;49.636;12.164;2023-11-19T11:13:11;8.42;99.99
68248;SHT30;55064;49.636;12.164;2023-11-19T11:15:38;8.48;99.99
68248;SHT30;55064;49.636;12.164;2023-11-19T11:18:08;8.55;99.99
68248;SHT30;55064;49.636;12.164;2023-11-19T11:20:34;8.63;99.99
68248;SHT30;55064;49.636;12.164;2023-11-19T11:28:43;8.91;99.99
68248;SHT30;55064;49.636;12.164;2023-11-19T11:31:28;8.96;99.99
68248;SHT30;55064;49.636;12.164;2023-11-19T11:34:02;8.99;99.99
68248;SHT30;55064;49.636;12.164;2023-11-19T11:36:37;8.99;99.99
68248;SHT30;55064;49.636;12.164;2023-11-19T11:39:09;9.14;99.99
68248;SHT30;55064;49.636;12.164;2023-11-19T11:41:34;9.24;99.99
68248;SHT30;55064;49.636;12.164;2023-11-19T11:43:59;9.36;99.99
68248;SHT30;55064;49.636;12.164;2023-11-19T11:49:05;9.56;99.99
68248;SHT30;55064;49.636;12.164;2023-11-19T11:57:07;10.46;99.90
68248;SHT30;55064;49.636;12.164;2023-11-19T11:59:42;10.70;99.86
68248;SHT30;55064;49.636;12.164;2023-11-19T12:02:09;10.68;99.04
68248;SHT30;55064;49.636;12.164;2023-11-19T12:04:35;10.65;98.60
68248;SHT30;55064;49.636;12.164;2023-11-19T12:07:17;10.65;99.01
68248;SHT30;55064;49.636;12.164;2023-11-19T12:09:48;10.75;97.63
68248;SHT30;55064;49.636;12.164;2023-11-19T12:19:59;10.79;97.19
68248;SHT30;55064;49.636;12.164;2023-11-19T12:22:25;10.73;97.78
68248;SHT30;55064;49.636;12.164;2023-11-19T12:24:52;10.73;97.87
68248;SHT30;55064;49.636;12.164;2023-11-19T12:27:19;10.70;98.44
68248;SHT30;55064;49.636;12.164;2023-11-19T12:29:47;10.62;99.05
68248;SHT30;55064;49.636;12.164;2023-11-19T12:32:12;10.63;99.27
68248;SHT30;55064;49.636;12.164;2023-11-19T12:34:38;10.52;99.62
68248;SHT30;55064;49.636;12.164;2023-11-19T12:37:04;10.56;99.56
68248;SHT30;55064;49.636;12.164;2023-11-19T12:39:30;10.52;99.52
68248;SHT30;55064;49.636;12.164;2023-11-19T12:41:56;10.48;99.53
68248;SHT30;55064;49.636;12.164;2023-11-19T12:44:24;10.44;99.81
68248;SHT30;55064;49.636;12.164;2023-11-19T12:47:06;10.52;99.62
68248;SHT30;55064;49.636;12.164;2023-11-19T12:49:35;10.55;99.67
68248;SHT30;55064;49.636;12.164;2023-11-19T12:52:00;10.51;99.79
68248;SHT30;55064;49.636;12.164;2023-11-19T12:54:35;10.53;99.92
68248;SHT30;55064;49.636;12.164;2023-11-19T12:57:02;10.53;99.99
68248;SHT30;55064;49.636;12.164;2023-11-19T12:59:27;10.49;99.99
68248;SHT30;55064;49.636;12.164;2023-11-19T13:01:59;10.53;99.99
68248;SHT30;55064;49.636;12.164;2023-11-19T13:04:29;10.52;99.99
68248;SHT30;55064;49.636;12.164;2023-11-19T13:06:59;10.51;99.99
68248;SHT30;55064;49.636;12.164;2023-11-19T13:09:27;10.51;99.99
68248;SHT30;55064;49.636;12.164;2023-11-19T13:11:54;10.51;99.99
68248;SHT30;55064;49.636;12.164;2023-11-19T13:14:21;10.53;99.99
68248;SHT30;55064;49.636;12.164;2023-11-19T13:16:47;10.65;99.99
68248;SHT30;55064;49.636;12.164;2023-11-19T13:19:15;10.83;99.99
68248;SHT30;55064;49.636;12.164;2023-11-19T13:21:41;10.90;99.99
68248;SHT30;55064;49.636;12.164;2023-11-19T13:24:07;10.90;99.99
68248;SHT30;55064;49.636;12.164;2023-11-19T13:26:32;10.90;98.71
68248;SHT30;55064;49.636;12.164;2023-11-19T13:28:58;10.86;97.69
68248;SHT30;55064;49.636;12.164;2023-11-19T13:31:23;10.86;97.38
68248;SHT30;55064;49.636;12.164;2023-11-19T13:33:48;10.95;96.77
68248;SHT30;55064;49.636;12.164;2023-11-19T13:36:14;10.96;97.02
68248;SHT30;55064;49.636;12.164;2023-11-19T13:38:39;10.92;97.27
68248;SHT30;55064;49.636;12.164;2023-11-19T13:41:07;10.87;97.62
68248;SHT30;55064;49.636;12.164;2023-11-19T13:43:34;10.83;97.43
68248;SHT30;55064;49.636;12.164;2023-11-19T13:46:00;10.83;97.13
68248;SHT30;55064;49.636;12.164;2023-11-19T13:48:25;10.76;97.05
68248;SHT30;55064;49.636;12.164;2023-11-19T13:50:52;10.79;97.23
68248;SHT30;55064;49.636;12.164;2023-11-19T13:53:17;10.89;96.84
68248;SHT30;55064;49.636;12.164;2023-11-19T13:55:43;10.89;96.98
68248;SHT30;55064;49.636;12.164;2023-11-19T13:58:09;10.95;96.96
68248;SHT30;55064;49.636;12.164;2023-11-19T14:00:34;11.03;96.60
68248;SHT30;55064;49.636;12.164;2023-11-19T14:03:00;11.10;96.91
68248;SHT30;55064;49.636;12.164;2023-11-19T14:05:25;11.13;96.89
68248;SHT30;55064;49.636;12.164;2023-11-19T14:07:51;11.14;96.86
68248;SHT30;55064;49.636;12.164;2023-11-19T14:10:17;11.16;96.82
68248;SHT30;55064;49.636;12.164;2023-11-19T14:12:43;11.25;96.77
68248;SHT30;55064;49.636;12.164;2023-11-19T14:15:09;11.27;97.12
68248;SHT30;55064;49.636;12.164;2023-11-19T14:17:35;11.18;97.00
68248;SHT30;55064;49.636;12.164;2023-11-19T14:20:02;11.21;97.29
68248;SHT30;55064;49.636;12.164;2023-11-19T14:22:29;11.20;97.53
68248;SHT30;55064;49.636;12.164;2023-11-19T14:24:55;11.23;97.27
68248;SHT30;55064;49.636;12.164;2023-11-19T14:27:21;11.18;97.17
68248;SHT30;55064;49.636;12.164;2023-11-19T14:29:47;11.11;97.47
68248;SHT30;55064;49.636;12.164;2023-11-19T14:32:12;11.07;96.96
68248;SHT30;55064;49.636;12.164;2023-11-19T14:34:38;10.97;96.98
68248;SHT30;55064;49.636;12.164;2023-11-19T14:37:03;10.95;97.09
68248;SHT30;55064;49.636;12.164;2023-11-19T14:39:29;10.86;97.33
68248;SHT30;55064;49.636;12.164;2023-11-19T14:41:57;10.76;97.40
68248;SHT30;55064;49.636;12.164;2023-11-19T14:44:26;10.70;97.32
68248;SHT30;55064;49.636;12.164;2023-11-19T14:46:52;10.65;97.18
68248;SHT30;55064;49.636;12.164;2023-11-19T14:49:17;10.59;97.11
68248;SHT30;55064;49.636;12.164;2023-11-19T14:51:42;10.63;96.67
68248;SHT30;55064;49.636;12.164;2023-11-19T14:54:08;10.56;96.92
68248;SHT30;55064;49.636;12.164;2023-11-19T14:56:33;10.49;97.02
68248;SHT30;55064;49.636;12.164;2023-11-19T14:58:59;10.46;96.87
68248;SHT30;55064;49.636;12.164;2023-11-19T15:01:25;10.45;96.92
68248;SHT30;55064;49.636;12.164;2023-11-19T15:03:50;10.42;97.13
68248;SHT30;55064;49.636;12.164;2023-11-19T15:06:16;10.41;97.09
68248;SHT30;55064;49.636;12.164;2023-11-19T15:08:41;10.42;97.10
68248;SHT30;55064;49.636;12.164;2023-11-19T15:11:07;10.42;97.43
68248;SHT30;55064;49.636;12.164;2023-11-19T15:13:34;10.45;97.81
68248;SHT30;55064;49.636;12.164;2023-11-19T15:16:01;10.42;97.86
68248;SHT30;55064;49.636;12.164;2023-11-19T15:18:27;10.40;97.72
68248;SHT30;55064;49.636;12.164;2023-11-19T15:20:53;10.34;97.78
68248;SHT30;55064;49.636;12.164;2023-11-19T15:23:18;10.24;97.81
68248;SHT30;55064;49.636;12.164;2023-11-19T15:25:44;10.21;97.90
68248;SHT30;55064;49.636;12.164;2023-11-19T15:28:10;10.15;98.07
68248;SHT30;55064;49.636;12.164;2023-11-19T15:30:35;10.10;98.23
68248;SHT30;55064;49.636;12.164;2023-11-19T15:33:00;10.08;98.21
68248;SHT30;55064;49.636;12.164;2023-11-19T15:35:26;10.01;98.30
68248;SHT30;55064;49.636;12.164;2023-11-19T15:37:51;9.97;98.38
68248;SHT30;55064;49.636;12.164;2023-11-19T15:40:17;9.96;98.37
68248;SHT30;55064;49.636;12.164;2023-11-19T15:42:43;9.89;98.48
68248;SHT30;55064;49.636;12.164;2023-11-19T15:45:09;9.83;98.82